地図

経路データ

SID SEASON NUMBER BASIN SUBBASIN NAME ISO_TIME NATURE LAT LON WMO_WIND WMO_PRES WMO_AGENCY TRACK_TYPE DIST2LAND LANDFALL IFLAG USA_AGENCY USA_ATCF_ID USA_LAT USA_LON USA_RECORD USA_STATUS USA_WIND USA_PRES USA_SSHS USA_R34_NE USA_R34_SE USA_R34_SW USA_R34_NW USA_R50_NE USA_R50_SE USA_R50_SW USA_R50_NW USA_R64_NE USA_R64_SE USA_R64_SW USA_R64_NW USA_POCI USA_ROCI USA_RMW USA_EYE TOKYO_LAT TOKYO_LON TOKYO_GRADE TOKYO_WIND TOKYO_PRES TOKYO_R50_DIR TOKYO_R50_LONG TOKYO_R50_SHORT TOKYO_R30_DIR TOKYO_R30_LONG TOKYO_R30_SHORT TOKYO_LAND CMA_LAT CMA_LON CMA_CAT CMA_WIND CMA_PRES HKO_LAT HKO_LON HKO_CAT HKO_WIND HKO_PRES NEWDELHI_LAT NEWDELHI_LON NEWDELHI_GRADE NEWDELHI_WIND NEWDELHI_PRES NEWDELHI_CI NEWDELHI_DP NEWDELHI_POCI REUNION_LAT REUNION_LON REUNION_TYPE REUNION_WIND REUNION_PRES REUNION_TNUM REUNION_CI REUNION_RMW REUNION_R34_NE REUNION_R34_SE REUNION_R34_SW REUNION_R34_NW REUNION_R50_NE REUNION_R50_SE REUNION_R50_SW REUNION_R50_NW REUNION_R64_NE REUNION_R64_SE REUNION_R64_SW REUNION_R64_NW BOM_LAT BOM_LON BOM_TYPE BOM_WIND BOM_PRES BOM_TNUM BOM_CI BOM_RMW BOM_R34_NE BOM_R34_SE BOM_R34_SW BOM_R34_NW BOM_R50_NE BOM_R50_SE BOM_R50_SW BOM_R50_NW BOM_R64_NE BOM_R64_SE BOM_R64_SW BOM_R64_NW BOM_ROCI BOM_POCI BOM_EYE BOM_POS_METHOD BOM_PRES_METHOD NADI_LAT NADI_LON NADI_CAT NADI_WIND NADI_PRES WELLINGTON_LAT WELLINGTON_LON WELLINGTON_WIND WELLINGTON_PRES DS824_LAT DS824_LON DS824_STAGE DS824_WIND DS824_PRES TD9636_LAT TD9636_LON TD9636_STAGE TD9636_WIND TD9636_PRES TD9635_LAT TD9635_LON TD9635_WIND TD9635_PRES TD9635_ROCI NEUMANN_LAT NEUMANN_LON NEUMANN_CLASS NEUMANN_WIND NEUMANN_PRES MLC_LAT MLC_LON MLC_CLASS MLC_WIND MLC_PRES USA_GUST BOM_GUST BOM_GUST_PER REUNION_GUST REUNION_GUST_PER USA_SEAHGT USA_SEARAD_NE USA_SEARAD_SE USA_SEARAD_SW USA_SEARAD_NW STORM_SPEED STORM_DIR
1978317N09150 1978 121 WP MM NOT_NAMED 1978-11-13 00:00:00 TS 8.50000 150.000 spur-merge 1222 1217 __O___________ -1 8.50000 150.000 0 19 1002 15 288
1978317N09150 1978 121 WP MM NOT_NAMED 1978-11-13 03:00:00 TS 8.73018 149.292 spur-merge 1228 1228 __P___________ -1 8.73018 149.292 0 21 1001 16 289
1978317N09150 1978 121 WP MM NOT_NAMED 1978-11-13 06:00:00 TS 9.00000 148.500 spur-merge 1249 1248 __O___________ -1 9.00000 148.500 1 23 1000 18 289
1978317N09150 1978 121 WP MM NOT_NAMED 1978-11-13 09:00:00 TS 9.30980 147.560 spur-merge 1277 1277 __P___________ -1 9.30980 147.560 1 23 1000 20 284
1978317N09150 1978 121 WP MM NOT_NAMED 1978-11-13 12:00:00 TS 9.50000 146.500 spur-merge 1299 1295 __O___________ -1 9.50000 146.500 1 23 1000 22 273
1978317N09150 1978 121 WP MM NOT_NAMED 1978-11-13 15:00:00 TS 9.43990 145.365 spur-merge 1295 1289 __P___________ -1 9.43990 145.365 1 23 1000 23 262
1978317N09150 1978 121 WP MM NOT_NAMED 1978-11-13 18:00:00 TS 9.20000 144.200 spur-merge 1293 1290 __O___________ -1 9.20000 144.200 1 23 1000 23 257
1978317N09150 1978 121 WP MM NOT_NAMED 1978-11-13 21:00:00 TS 8.91722 143.078 spur-merge 1292 1211 __P___________ -1 8.91722 143.078 1 21 1001 23 252
1978317N09150 1978 121 WP MM NOT_NAMED 1978-11-14 00:00:00 TS 8.50000 142.000 spur-merge 1207 1109 __O___________ -1 8.50000 142.000 0 19 1002 23 243
1978317N09150 1978 121 WP MM NOT_NAMED 1978-11-14 03:00:00 TS 7.86966 140.985 spur-merge 1109 1019 __P___________ -1 7.86966 140.985 0 19 1002 23 239
1978317N09150 1978 121 WP MM NOT_NAMED 1978-11-14 06:00:00 TS 7.30000 140.000 spur-merge 1015 943 __O___________ -1 7.30000 140.000 0 19 1002 21 247
1978317N09150 1978 121 WP MM NOT_NAMED 1978-11-14 09:00:00 TS 7.03730 139.000 spur-merge 939 906 __P___________ -1 7.03730 139.000 0 19 1002 20 261
1978317N09150 1978 121 WP MM NOT_NAMED 1978-11-14 12:00:00 TS 7.00000 138.000 spur-merge 903 883 __O___________ -1 7.00000 138.000 0 19 1002 19 271
1978317N09150 1978 121 WP MM NOT_NAMED 1978-11-14 15:00:00 TS 7.07423 137.075 spur-merge 889 882 __P___________ -1 7.07423 137.075 0 19 1002 20 279
1978317N09150 1978 121 WP MM NOT_NAMED 1978-11-14 18:00:00 TS 7.30000 136.000 spur-merge 897 868 __O___________ -1 7.30000 136.000 0 19 1002 26 282
1978317N09150 1978 121 WP MM NOT_NAMED 1978-11-14 21:00:00 TS 7.59837 134.500 spur-merge 860 717 __P___________ -1 7.59837 134.500 0 19 1002 31 283
1978317N09150 1978 121 WP MM NOT_NAMED 1978-11-15 00:00:00 TS 8.00000 133.000 spur-merge 706 589 __O___________ -1 8.00000 133.000 0 19 1002 27 289
1978317N09150 1978 121 WP MM NOT_NAMED 1978-11-15 03:00:00 TS 8.47683 131.888 spur-merge 590 505 __P___________ -1 8.47683 131.888 0 19 1002 22 297
1978317N09150 1978 121 WP MM NOT_NAMED 1978-11-15 06:00:00 TS 9.00000 131.000 spur-merge 505 422 __O___________ -1 9.00000 131.000 0 19 1002 21 299
1978317N09150 1978 121 WP MM NOT_NAMED 1978-11-15 09:00:00 TS 9.47007 130.063 spur-merge 424 370 __P___________ -1 9.47007 130.063 0 19 1002 18 304
1978317N09150 1978 121 WP MM NOT_NAMED 1978-11-15 12:00:00 TS 10.0000 129.500 spur-merge 373 373 __O___________ -1 10.0000 129.500 0 19 1002 13 340
1978317N09150 1978 121 WP MM NOT_NAMED 1978-11-15 15:00:00 TS 10.6923 129.599 spur-merge 408 408 __P___________ -1 10.6923 129.599 0 19 1002 15 19
1978317N09150 1978 121 WP MM NOT_NAMED 1978-11-15 18:00:00 TS 11.4000 130.000 spur-merge 460 460 __O___________ -1 11.4000 130.000 0 19 1002 14 32
1978317N09150 1978 121 WP MM NOT_NAMED 1978-11-15 21:00:00 TS 11.9050 130.362 spur-merge 511 511 __P___________ -1 11.9050 130.362 0 19 1002 12 24
1978317N09150 1978 121 WP MM NOT_NAMED 1978-11-16 00:00:00 TS 12.5000 130.500 spur-merge 538 527 __O___________ -1 12.5000 130.500 0 19 1002 17 353
1978317N09150 1978 121 WP MM NOT_NAMED 1978-11-16 03:00:00 TS 13.5449 130.151 spur-merge 530 503 __P___________ -1 13.5449 130.151 0 19 1002 22 334
1978317N09150 1978 121 WP MM NOT_NAMED 1978-11-16 06:00:00 TS 14.5000 129.500 spur-merge 503 467 __O___________ -1 14.5000 129.500 0 19 1002 20 317
1978317N09150 1978 121 WP MM NOT_NAMED 1978-11-16 09:00:00 TS 14.9677 128.765 spur-merge 474 406 __P___________ -1 14.9677 128.765 0 19 1002 15 289
1978317N09150 1978 121 WP MM NOT_NAMED 1978-11-16 12:00:00 TS 15.0000 128.000 spur-merge 406 325 __O___________ -1 15.0000 128.000 0 19 1002 14 258
1978317N09150 1978 121 WP MM NOT_NAMED 1978-11-16 15:00:00 TS 14.6700 127.309 spur-merge 325 249 __P___________ -1 14.6700 127.309 0 19 1002 15 232
1978317N09150 1978 121 WP MM NOT_NAMED 1978-11-16 18:00:00 TS 14.1000 126.800 spur-merge 249 171 __O___________ -1 14.1000 126.800 0 19 1002 15 212
1978317N09150 1978 121 WP MM NOT_NAMED 1978-11-16 21:00:00 TS 13.4072 126.500 spur-merge 171 140 __P___________ -1 13.4072 126.500 0 19 1002 11 195
1978317N09150 1978 121 WP MM NOT_NAMED 1978-11-17 00:00:00 TS 13.0000 126.500 spur-merge 140 140 __O___________ -1 13.0000 126.500 0 19 1002 4 98
1978317N09150 1978 121 WP MM NOT_NAMED 1978-11-17 03:00:00 TS 13.3579 126.884 spur-merge 202 202 __P___________ -1 13.2854 126.811 0 19 1002 13 38
1978317N09150 1978 121 WP MM NOT_NAMED 1978-11-17 06:00:00 TS 14.0000 127.300 spur-merge 280 280 __O___________ -1 14.0000 127.300 0 19 1002 12 23
1978317N09150 1978 121 WP MM NOT_NAMED 1978-11-17 09:00:00 TS 14.4373 127.348 spur-merge 311 ______________ -1 0 9 5

デジタル台風データ・検索

IBTrACS Databaseについて

本データベースは、米国NOAAが公開する1842年以降の世界の熱帯低気圧のベストトラックデータアーカイブInternational Best Track Archive for Climate Stewardship (IBTrACS)を、ウェブで閲覧しやすい形式に変換したものです。

最終更新日:2021-10-08